Time;durP1;ratioP1;P1;durP2;ratioP2;P2;SDS_P1;SDS_P2;PMS_P1;PMS_P2;Temp;Humidity;BMP_temperature;BMP_pressure;BME280_temperature;BME280_humidity;BME280_pressure;Samples;Min_cycle;Max_cycle;Signal;HPM_P1;HPM_P2
2022/11/07 00:03:15;;;;;;;1.77;0.65;;;11.20;99.90;;;;;;20807706;28;20374;-37
2022/11/07 00:13:16;;;;;;;4.85;1.73;;;11.20;99.90;;;;;;20806430;28;20042;-37
2022/11/07 00:23:17;;;;;;;3.92;1.48;;;11.40;99.90;;;;;;20803059;28;20044;-37
2022/11/07 00:33:18;;;;;;;2.53;1.17;;;11.30;99.90;;;;;;20803370;28;20706;-37
2022/11/07 00:43:19;;;;;;;2.70;0.75;;;11.40;99.90;;;;;;20795370;28;20072;-37
2022/11/07 00:53:20;;;;;;;4.00;0.88;;;11.40;99.90;;;;;;20798694;28;20069;-37
2022/11/07 01:13:41;;;;;;;4.50;1.40;;;11.40;99.90;;;;;;20803081;28;20509;-36
2022/11/07 01:23:42;;;;;;;1.88;0.80;;;11.30;99.90;;;;;;20800127;28;20513;-36
2022/11/07 01:33:44;;;;;;;3.78;1.02;;;11.30;99.90;;;;;;20796438;28;20120;-36
2022/11/07 01:43:48;;;;;;;2.42;0.95;;;11.40;99.90;;;;;;20795432;28;22731;-37
2022/11/07 01:53:50;;;;;;;4.15;0.82;;;11.40;99.90;;;;;;20811099;28;20247;-37
2022/11/07 02:03:52;;;;;;;2.97;1.05;;;11.50;99.90;;;;;;20798175;28;20148;-39
2022/11/07 02:13:53;;;;;;;1.67;0.60;;;11.40;99.90;;;;;;20806366;28;20077;-37
2022/11/07 02:23:59;;;;;;;6.78;2.17;;;11.30;99.90;;;;;;20807869;28;20050;-37
2022/11/07 02:34:00;;;;;;;1.33;0.77;;;11.20;99.90;;;;;;20804952;28;20523;-37
2022/11/07 02:44:06;;;;;;;3.42;1.48;;;11.20;99.90;;;;;;20807059;28;20507;-37
2022/11/07 02:54:07;;;;;;;2.80;1.02;;;11.30;99.90;;;;;;20832489;28;20122;-37
2022/11/07 03:04:08;;;;;;;3.70;1.10;;;11.30;99.90;;;;;;20806717;28;20049;-37
2022/11/07 03:14:09;;;;;;;5.35;2.00;;;11.40;99.90;;;;;;20798493;28;20049;-37
2022/11/07 03:24:10;;;;;;;2.45;0.65;;;11.50;99.90;;;;;;20824855;28;20053;-37
2022/11/07 03:34:11;;;;;;;4.63;1.88;;;11.30;99.90;;;;;;20809144;28;20077;-37
2022/11/07 03:44:12;;;;;;;7.97;0.75;;;11.30;99.90;;;;;;20812172;28;20515;-37
2022/11/07 03:54:13;;;;;;;5.40;1.98;;;11.20;99.90;;;;;;20804362;28;20493;-37
2022/11/07 04:04:14;;;;;;;3.80;0.93;;;11.20;99.90;;;;;;20796313;28;20056;-37
2022/11/07 04:24:35;;;;;;;20.55;3.65;;;11.30;99.90;;;;;;20802628;28;20895;-37
2022/11/07 04:34:36;;;;;;;6.95;1.90;;;11.30;99.90;;;;;;20807136;28;20041;-38
2022/11/07 04:44:37;;;;;;;9.82;1.45;;;11.30;99.90;;;;;;20778052;28;20143;-37
2022/11/07 04:54:38;;;;;;;2.15;0.80;;;11.30;99.90;;;;;;20798475;28;20108;-37
2022/11/07 05:04:39;;;;;;;1.80;0.77;;;11.30;99.90;;;;;;20798586;28;20040;-38
2022/11/07 05:14:40;;;;;;;15.25;2.00;;;11.50;99.90;;;;;;20790819;28;20128;-38
2022/11/07 05:24:41;;;;;;;2.85;1.25;;;11.50;99.90;;;;;;20801479;28;20793;-38
2022/11/07 05:34:43;;;;;;;9.30;2.20;;;11.60;99.90;;;;;;20786470;28;20441;-38
2022/11/07 05:44:44;;;;;;;4.65;1.75;;;11.60;99.90;;;;;;20803404;28;20095;-38
2022/11/07 05:54:45;;;;;;;4.18;1.00;;;11.60;99.90;;;;;;20791209;28;20269;-38
2022/11/07 06:04:46;;;;;;;1.42;0.55;;;11.60;99.90;;;;;;20797717;28;20064;-37
2022/11/07 06:14:47;;;;;;;4.30;1.75;;;11.60;99.90;;;;;;20798667;28;20038;-37
2022/11/07 06:24:48;;;;;;;6.93;1.73;;;11.60;99.90;;;;;;20805456;28;20404;-38
2022/11/07 06:34:49;;;;;;;4.60;1.83;;;11.60;99.90;;;;;;20811455;28;20630;-38
2022/11/07 06:44:50;;;;;;;3.40;1.48;;;11.60;99.90;;;;;;20810067;28;20070;-38
2022/11/07 06:54:51;;;;;;;3.70;1.50;;;11.80;99.90;;;;;;20795153;28;20075;-38
2022/11/07 07:04:52;;;;;;;2.50;0.90;;;12.00;99.90;;;;;;20817844;28;20048;-38
2022/11/07 07:14:53;;;;;;;3.00;1.58;;;12.00;99.90;;;;;;20809251;28;20059;-38
2022/11/07 07:24:54;;;;;;;3.28;0.82;;;12.10;99.90;;;;;;20786149;28;20096;-38
2022/11/07 07:34:55;;;;;;;4.85;1.85;;;12.10;99.90;;;;;;20819119;28;20068;-38
2022/11/07 07:44:56;;;;;;;3.78;0.85;;;12.10;99.90;;;;;;20791856;28;20083;-38
2022/11/07 07:54:57;;;;;;;5.38;0.95;;;12.10;99.90;;;;;;20793597;28;20124;-38
2022/11/07 08:04:58;;;;;;;4.43;1.98;;;12.20;99.90;;;;;;20777160;28;20136;-38
2022/11/07 08:14:59;;;;;;;5.63;2.35;;;12.20;99.90;;;;;;20802454;28;20523;-38
2022/11/07 08:25:00;;;;;;;4.97;2.08;;;12.30;99.90;;;;;;20785936;28;20532;-38
2022/11/07 08:35:01;;;;;;;3.78;1.50;;;12.40;99.90;;;;;;20790400;28;20064;-38
2022/11/07 08:45:02;;;;;;;8.00;1.60;;;12.60;99.90;;;;;;20744871;28;20128;-38
2022/11/07 08:55:03;;;;;;;2.80;1.40;;;12.70;99.90;;;;;;20768471;28;20508;-38
2022/11/07 09:05:04;;;;;;;4.20;0.85;;;12.80;99.90;;;;;;20774574;28;20049;-38
2022/11/07 09:15:06;;;;;;;14.60;1.35;;;12.90;99.90;;;;;;20750178;28;20507;-38
2022/11/07 09:25:07;;;;;;;3.17;1.20;;;12.90;99.90;;;;;;20778133;28;20393;-38
2022/11/07 09:35:09;;;;;;;3.78;1.48;;;13.00;99.90;;;;;;20737064;28;20036;-38
2022/11/07 09:45:12;;;;;;;5.18;1.10;;;13.20;99.90;;;;;;20785579;28;20075;-38
2022/11/07 09:55:36;;;;;;;2.40;0.88;;;13.20;99.90;;;;;;20780492;28;20135;-38
2022/11/07 10:05:52;;;;;;;6.63;1.33;;;13.20;99.90;;;;;;20789935;28;20900;-38
2022/11/07 10:16:14;;;;;;;6.22;2.17;;;13.30;99.90;;;;;;20774436;28;21285;-38
2022/11/07 10:26:19;;;;;;;2.92;1.02;;;13.30;99.90;;;;;;20726718;28;20565;-38
2022/11/07 10:36:29;;;;;;;12.35;1.50;;;13.30;99.90;;;;;;20780211;28;20124;-37
2022/11/07 10:46:38;;;;;;;5.47;1.83;;;13.40;99.90;;;;;;20753653;28;20484;-38
2022/11/07 10:56:45;;;;;;;2.00;0.77;;;13.60;99.90;;;;;;20788620;28;20804;-38
2022/11/07 11:06:59;;;;;;;21.08;2.92;;;13.70;99.90;;;;;;20777548;28;21892;-38
2022/11/07 11:17:00;;;;;;;4.53;1.58;;;13.80;99.90;;;;;;20809910;28;20103;-38
2022/11/07 11:27:15;;;;;;;2.95;1.10;;;13.80;99.90;;;;;;20815269;28;20090;-38
2022/11/07 11:37:26;;;;;;;3.30;1.20;;;13.70;99.90;;;;;;20825513;28;20100;-38
2022/11/07 11:47:43;;;;;;;4.88;1.75;;;13.70;99.90;;;;;;20811485;28;20370;-38
2022/11/07 11:57:44;;;;;;;2.83;1.37;;;13.60;99.90;;;;;;20832002;28;20798;-38
2022/11/07 12:07:50;;;;;;;6.07;1.52;;;13.70;99.90;;;;;;20815669;28;20029;-38
2022/11/07 12:18:07;;;;;;;8.73;1.58;;;13.80;99.90;;;;;;20797869;28;20175;-38
2022/11/07 12:28:44;;;;;;;5.95;2.25;;;13.80;99.90;;;;;;20796168;28;20538;-38
2022/11/07 12:39:29;;;;;;;2.80;1.33;;;13.90;99.90;;;;;;20789865;28;20980;-38
2022/11/07 12:49:48;;;;;;;4.57;1.25;;;13.90;99.90;;;;;;20769144;28;20128;-38
2022/11/07 12:59:56;;;;;;;2.97;1.00;;;13.90;99.90;;;;;;20800136;28;22483;-38
2022/11/07 13:10:53;;;;;;;2.88;0.90;;;14.00;99.90;;;;;;20755321;28;20786;-38
2022/11/07 13:21:02;;;;;;;4.95;1.85;;;14.10;99.90;;;;;;20713406;28;20921;-38
2022/11/07 13:31:04;;;;;;;5.88;0.80;;;13.90;99.90;;;;;;20767394;28;20041;-37
2022/11/07 13:41:07;;;;;;;2.97;1.27;;;14.00;99.90;;;;;;20782232;28;21321;-37
2022/11/07 13:51:18;;;;;;;4.63;1.27;;;13.90;99.90;;;;;;20787633;28;20063;-37
2022/11/07 14:01:21;;;;;;;3.42;1.10;;;13.80;99.90;;;;;;20783241;28;20194;-37
2022/11/07 14:11:22;;;;;;;4.85;1.35;;;13.90;99.90;;;;;;20776750;28;20171;-37
2022/11/07 14:21:29;;;;;;;2.25;0.80;;;14.10;99.90;;;;;;20783745;28;20051;-37
2022/11/07 14:31:33;;;;;;;2.07;0.87;;;14.20;99.90;;;;;;20786013;28;20124;-37
2022/11/07 14:41:38;;;;;;;2.08;0.63;;;14.20;99.90;;;;;;20778440;28;20652;-37
2022/11/07 14:51:39;;;;;;;3.45;0.88;;;14.10;99.90;;;;;;20819632;28;20304;-39
2022/11/07 15:01:52;;;;;;;2.03;0.70;;;14.00;99.90;;;;;;20798888;28;20182;-37
2022/11/07 15:11:57;;;;;;;9.70;3.15;;;13.80;99.90;;;;;;20809233;28;20483;-38
2022/11/07 15:22:00;;;;;;;2.33;0.75;;;13.70;99.90;;;;;;20805810;28;20261;-37
2022/11/07 15:32:13;;;;;;;5.28;0.80;;;13.50;99.90;;;;;;20807714;28;20136;-37
2022/11/07 15:42:14;;;;;;;2.88;0.90;;;13.50;99.90;;;;;;20822702;28;20076;-38
2022/11/07 15:52:15;;;;;;;5.20;1.83;;;13.40;99.90;;;;;;20817581;28;20584;-37
2022/11/07 16:02:16;;;;;;;5.07;1.02;;;13.30;99.90;;;;;;20795393;28;20438;-38
2022/11/07 16:12:18;;;;;;;3.25;1.15;;;13.30;99.90;;;;;;20810399;28;20073;-37
2022/11/07 16:22:19;;;;;;;3.67;1.38;;;13.30;99.90;;;;;;20817657;28;20069;-38
2022/11/07 16:32:20;;;;;;;2.92;1.17;;;13.20;99.90;;;;;;20822582;28;20481;-38
2022/11/07 16:42:21;;;;;;;3.60;1.05;;;13.30;99.90;;;;;;20808754;28;20036;-38
2022/11/07 16:52:25;;;;;;;3.70;1.20;;;13.40;99.90;;;;;;20828460;28;20061;-38
2022/11/07 17:02:26;;;;;;;3.05;0.88;;;13.50;99.90;;;;;;20849796;28;20442;-37
2022/11/07 17:12:27;;;;;;;3.25;1.50;;;13.60;99.90;;;;;;20825907;28;20037;-38
2022/11/07 17:22:28;;;;;;;4.57;1.60;;;13.60;99.90;;;;;;20793478;28;20091;-38
2022/11/07 17:32:29;;;;;;;6.68;1.73;;;13.70;99.90;;;;;;20773617;28;20601;-38
2022/11/07 17:42:30;;;;;;;4.80;1.98;;;13.80;99.90;;;;;;20775307;28;20065;-38
2022/11/07 17:52:31;;;;;;;10.02;1.63;;;13.80;99.90;;;;;;20788589;28;20496;-37
2022/11/07 18:02:32;;;;;;;5.35;1.00;;;13.80;99.90;;;;;;20781464;28;20514;-37
2022/11/07 18:12:33;;;;;;;5.93;1.35;;;13.90;99.90;;;;;;20779651;28;20436;-38
2022/11/07 18:22:35;;;;;;;6.63;1.75;;;14.00;99.90;;;;;;20786484;28;21100;-38
2022/11/07 18:32:36;;;;;;;3.95;1.13;;;14.00;99.90;;;;;;20778791;28;20619;-38
2022/11/07 18:42:43;;;;;;;3.88;1.67;;;13.90;99.90;;;;;;20793430;28;20512;-38
2022/11/07 18:52:44;;;;;;;5.13;2.00;;;13.90;99.90;;;;;;20773180;28;20901;-38
2022/11/07 19:02:45;;;;;;;4.75;0.80;;;13.80;99.90;;;;;;20778980;28;20225;-37
2022/11/07 19:12:46;;;;;;;5.38;1.20;;;13.70;99.90;;;;;;20779872;28;20077;-38
2022/11/07 19:22:47;;;;;;;4.32;2.08;;;13.60;99.90;;;;;;20767792;28;22220;-38
2022/11/07 19:32:50;;;;;;;2.70;0.80;;;13.60;99.90;;;;;;20782520;28;20068;-38
2022/11/07 19:42:52;;;;;;;2.65;1.05;;;13.60;99.90;;;;;;20790755;28;20137;-38
2022/11/07 19:52:53;;;;;;;2.00;1.10;;;13.60;99.90;;;;;;20812388;28;20090;-38
2022/11/07 20:02:54;;;;;;;3.42;1.45;;;13.60;99.90;;;;;;20797084;28;20096;-38
2022/11/07 20:12:55;;;;;;;3.13;1.45;;;13.50;99.90;;;;;;20777843;28;20246;-37
2022/11/07 20:22:59;;;;;;;2.78;1.63;;;13.60;99.90;;;;;;20782952;28;22264;-37
2022/11/07 20:33:00;;;;;;;4.20;1.95;;;13.60;99.90;;;;;;20788425;28;20519;-38
2022/11/07 20:43:01;;;;;;;4.15;1.92;;;13.70;99.90;;;;;;20783278;28;20087;-37
2022/11/07 20:53:03;;;;;;;5.72;2.08;;;13.70;99.90;;;;;;20767261;28;20176;-37
2022/11/07 21:03:04;;;;;;;5.00;1.00;;;13.90;99.90;;;;;;20783606;28;20592;-38
2022/11/07 21:13:05;;;;;;;4.57;1.55;;;13.90;99.90;;;;;;20779657;28;20102;-37
2022/11/07 21:23:06;;;;;;;7.28;2.05;;;13.80;99.90;;;;;;20789625;28;20485;-37
2022/11/07 21:33:07;;;;;;;5.25;1.60;;;13.90;99.90;;;;;;20781831;28;20183;-37
2022/11/07 21:43:08;;;;;;;4.78;0.95;;;14.00;99.90;;;;;;20766714;28;20132;-37
2022/11/07 21:53:09;;;;;;;8.98;3.90;;;14.00;99.90;;;;;;20787939;28;20064;-37
2022/11/07 22:03:10;;;;;;;4.20;1.20;;;14.10;99.90;;;;;;20786927;28;20653;-37
2022/11/07 22:13:11;;;;;;;6.18;1.92;;;14.00;99.90;;;;;;20821961;28;20531;-37
2022/11/07 22:23:12;;;;;;;2.05;1.08;;;14.00;99.90;;;;;;20822379;28;20048;-37
2022/11/07 22:33:13;;;;;;;6.35;1.73;;;14.00;99.90;;;;;;20808908;28;20033;-38
2022/11/07 22:43:14;;;;;;;5.25;1.13;;;13.90;99.90;;;;;;20807523;28;20037;-38
2022/11/07 22:53:15;;;;;;;1.83;0.85;;;13.90;99.90;;;;;;20826860;28;20041;-38
2022/11/07 23:03:16;;;;;;;2.28;1.10;;;13.90;99.90;;;;;;20814747;28;20045;-38
2022/11/07 23:13:17;;;;;;;3.75;0.75;;;13.80;99.90;;;;;;20831622;28;20044;-37
2022/11/07 23:23:18;;;;;;;3.03;1.40;;;13.90;99.90;;;;;;20827482;28;20053;-38
2022/11/07 23:33:19;;;;;;;2.45;0.68;;;13.70;99.90;;;;;;20825689;28;20033;-38
2022/11/07 23:43:21;;;;;;;3.22;0.60;;;13.60;99.90;;;;;;20819973;28;20627;-38
